DLH2020 EHAM-EDDH
Flight info
| Callsign | DLH2020 |
|---|---|
| Flight time | 0h 44m |
| Altitude | 24000 |
| Route | ANDIK M105 RIBSO RIBSO7A |
| Aircraft | A320/M-SDE3FGHIRWY/LB1 |
Departure
| Time | 2026-05-07 18:31 |
|---|---|
| Airport | Amsterdam Airport Schiphol (EHAM) |
Arrival
| Time | 2026-05-07 19:16 |
|---|---|
| Airport | Hamburg Helmut Schmidt Airport (EDDH) |
| Time | Latitude | Longitude | Altitude | Speed | Heading |
|---|---|---|---|---|---|
| 2026-05-07 18:05 | 52.30705 | 4.77280 | -1 ft | 0 kts | 2° |
| 2026-05-07 18:20 | 52.30704 | 4.77280 | -1 ft | 1 kts | 2° |
| 2026-05-07 18:21 | 52.30681 | 4.77276 | -1 ft | 4 kts | 12° |
| 2026-05-07 18:21 | 52.30664 | 4.77269 | -1 ft | 4 kts | 28° |
| 2026-05-07 18:21 | 52.30648 | 4.77248 | -1 ft | 4 kts | 70° |
| 2026-05-07 18:21 | 52.30645 | 4.77232 | -1 ft | 0 kts | 94° |
| 2026-05-07 18:25 | 52.30615 | 4.77271 | -1 ft | 13 kts | 158° |
| 2026-05-07 18:25 | 52.30528 | 4.77134 | -1 ft | 21 kts | 236° |
| 2026-05-07 18:25 | 52.30455 | 4.76941 | -1 ft | 19 kts | 238° |
| 2026-05-07 18:25 | 52.30388 | 4.76765 | -1 ft | 18 kts | 238° |
| 2026-05-07 18:26 | 52.30326 | 4.76603 | -1 ft | 16 kts | 238° |
| 2026-05-07 18:26 | 52.30270 | 4.76458 | -1 ft | 14 kts | 237° |
| 2026-05-07 18:26 | 52.30212 | 4.76305 | -1 ft | 20 kts | 239° |
| 2026-05-07 18:26 | 52.30119 | 4.76063 | -1 ft | 29 kts | 238° |
| 2026-05-07 18:27 | 52.30006 | 4.75769 | -1 ft | 32 kts | 238° |
| 2026-05-07 18:27 | 52.29890 | 4.75463 | -1 ft | 26 kts | 238° |
| 2026-05-07 18:27 | 52.29834 | 4.75228 | -1 ft | 21 kts | 284° |
| 2026-05-07 18:27 | 52.29893 | 4.75099 | -1 ft | 22 kts | 311° |
| 2026-05-07 18:28 | 52.30031 | 4.74842 | -1 ft | 24 kts | 311° |
| 2026-05-07 18:28 | 52.30123 | 4.74675 | 8 ft | 16 kts | 311° |
| 2026-05-07 18:28 | 52.30200 | 4.74531 | 10 ft | 23 kts | 311° |
| 2026-05-07 18:28 | 52.30323 | 4.74296 | 0 ft | 26 kts | 305° |
| 2026-05-07 18:29 | 52.30361 | 4.74114 | -1 ft | 20 kts | 244° |
| 2026-05-07 18:29 | 52.30270 | 4.73976 | -1 ft | 16 kts | 215° |
| 2026-05-07 18:29 | 52.30198 | 4.73880 | -2 ft | 16 kts | 232° |
| 2026-05-07 18:29 | 52.30249 | 4.73741 | -3 ft | 18 kts | 0° |
| 2026-05-07 18:30 | 52.30282 | 4.73744 | -4 ft | 0 kts | 5° |
| 2026-05-07 18:30 | 52.30510 | 4.73767 | -3 ft | 70 kts | 3° |
| 2026-05-07 18:31 | 52.31211 | 4.73829 | -2 ft | 130 kts | 2° |
| 2026-05-07 18:31 | 52.32267 | 4.73925 | 119 ft | 165 kts | 4° |
| 2026-05-07 18:31 | 52.33440 | 4.74037 | 651 ft | 173 kts | 7° |
| 2026-05-07 18:31 | 52.34638 | 4.74405 | 1330 ft | 176 kts | 21° |
| 2026-05-07 18:32 | 52.35778 | 4.75351 | 1747 ft | 196 kts | 35° |
| 2026-05-07 18:32 | 52.37030 | 4.76546 | 2148 ft | 221 kts | 28° |
| 2026-05-07 18:32 | 52.38372 | 4.77987 | 2571 ft | 243 kts | 44° |
| 2026-05-07 18:32 | 52.39621 | 4.79946 | 3333 ft | 252 kts | 46° |
| 2026-05-07 18:33 | 52.40880 | 4.82001 | 4186 ft | 259 kts | 47° |
| 2026-05-07 18:33 | 52.42151 | 4.84103 | 5018 ft | 267 kts | 45° |
| 2026-05-07 18:33 | 52.43735 | 4.85809 | 5827 ft | 275 kts | 19° |
| 2026-05-07 18:33 | 52.45616 | 4.86218 | 6622 ft | 280 kts | 356° |
| 2026-05-07 18:34 | 52.47572 | 4.86027 | 7498 ft | 283 kts | 355° |
| 2026-05-07 18:34 | 52.49547 | 4.85827 | 8366 ft | 286 kts | 355° |
| 2026-05-07 18:34 | 52.51545 | 4.85750 | 9235 ft | 290 kts | 5° |
| 2026-05-07 18:34 | 52.53509 | 4.86538 | 10104 ft | 293 kts | 22° |
| 2026-05-07 18:35 | 52.55297 | 4.88269 | 10564 ft | 310 kts | 40° |
| 2026-05-07 18:35 | 52.56793 | 4.90996 | 10794 ft | 334 kts | 52° |
| 2026-05-07 18:35 | 52.58258 | 4.94102 | 11119 ft | 351 kts | 52° |
| 2026-05-07 18:35 | 52.59770 | 4.97301 | 11758 ft | 358 kts | 52° |
| 2026-05-07 18:36 | 52.61316 | 5.00551 | 12443 ft | 363 kts | 51° |
| 2026-05-07 18:36 | 52.62889 | 5.03841 | 12946 ft | 368 kts | 52° |
| 2026-05-07 18:36 | 52.64478 | 5.07159 | 13065 ft | 369 kts | 52° |
| 2026-05-07 18:36 | 52.66059 | 5.10464 | 13093 ft | 367 kts | 52° |
| 2026-05-07 18:37 | 52.67638 | 5.13775 | 13096 ft | 367 kts | 52° |
| 2026-05-07 18:37 | 52.69214 | 5.17089 | 13096 ft | 367 kts | 52° |
| 2026-05-07 18:37 | 52.70785 | 5.20396 | 13100 ft | 367 kts | 52° |
| 2026-05-07 18:37 | 52.72361 | 5.23713 | 13088 ft | 367 kts | 52° |
| 2026-05-07 18:38 | 52.73794 | 5.27194 | 13108 ft | 367 kts | 61° |
| 2026-05-07 18:38 | 52.74823 | 5.31045 | 13107 ft | 367 kts | 71° |
| 2026-05-07 18:38 | 52.75682 | 5.35011 | 13106 ft | 366 kts | 70° |
| 2026-05-07 18:38 | 52.76538 | 5.38973 | 13136 ft | 369 kts | 71° |
| 2026-05-07 18:39 | 52.77403 | 5.42995 | 13835 ft | 373 kts | 71° |
| 2026-05-07 18:39 | 52.78270 | 5.47035 | 14514 ft | 375 kts | 71° |
| 2026-05-07 18:39 | 52.79147 | 5.51121 | 15132 ft | 379 kts | 71° |
| 2026-05-07 18:39 | 52.80020 | 5.55182 | 15787 ft | 381 kts | 71° |
| 2026-05-07 18:40 | 52.80908 | 5.59336 | 16396 ft | 385 kts | 71° |
| 2026-05-07 18:40 | 52.81800 | 5.63524 | 17037 ft | 388 kts | 71° |
| 2026-05-07 18:40 | 52.82696 | 5.67743 | 17664 ft | 391 kts | 71° |
| 2026-05-07 18:40 | 52.83601 | 5.72009 | 18287 ft | 395 kts | 71° |
| 2026-05-07 18:41 | 52.84514 | 5.76305 | 18841 ft | 397 kts | 71° |
| 2026-05-07 18:41 | 52.85436 | 5.80639 | 19358 ft | 401 kts | 71° |
| 2026-05-07 18:41 | 52.86364 | 5.85009 | 19913 ft | 404 kts | 71° |
| 2026-05-07 18:41 | 52.87292 | 5.89410 | 20460 ft | 407 kts | 71° |
| 2026-05-07 18:42 | 52.87911 | 5.92349 | 20830 ft | 408 kts | 71° |
| 2026-05-07 18:42 | 52.88844 | 5.96792 | 21366 ft | 410 kts | 72° |
| 2026-05-07 18:42 | 52.89796 | 6.01332 | 21876 ft | 414 kts | 71° |
| 2026-05-07 18:42 | 52.90730 | 6.05790 | 22382 ft | 416 kts | 71° |
| 2026-05-07 18:43 | 52.91678 | 6.10330 | 22836 ft | 420 kts | 71° |
| 2026-05-07 18:43 | 52.92633 | 6.14917 | 23072 ft | 422 kts | 71° |
| 2026-05-07 18:43 | 52.93599 | 6.19576 | 23116 ft | 433 kts | 71° |
| 2026-05-07 18:43 | 52.94577 | 6.24317 | 23109 ft | 435 kts | 71° |
| 2026-05-07 18:44 | 52.95557 | 6.29068 | 23108 ft | 436 kts | 71° |
| 2026-05-07 18:44 | 52.96538 | 6.33829 | 23112 ft | 436 kts | 71° |
| 2026-05-07 18:44 | 52.97516 | 6.38583 | 23110 ft | 436 kts | 71° |
| 2026-05-07 18:44 | 52.98496 | 6.43347 | 23118 ft | 436 kts | 71° |
| 2026-05-07 18:45 | 52.99471 | 6.48105 | 23116 ft | 436 kts | 72° |
| 2026-05-07 18:45 | 53.00442 | 6.52877 | 23117 ft | 436 kts | 71° |
| 2026-05-07 18:45 | 53.01411 | 6.57644 | 23112 ft | 436 kts | 71° |
| 2026-05-07 18:45 | 53.02385 | 6.62415 | 23107 ft | 436 kts | 71° |
| 2026-05-07 18:46 | 53.03355 | 6.67181 | 23113 ft | 436 kts | 71° |
| 2026-05-07 18:46 | 53.04321 | 6.71948 | 23112 ft | 436 kts | 71° |
| 2026-05-07 18:46 | 53.05288 | 6.76724 | 23114 ft | 436 kts | 71° |
| 2026-05-07 18:46 | 53.06252 | 6.81501 | 23116 ft | 435 kts | 72° |
| 2026-05-07 18:47 | 53.07212 | 6.86271 | 23123 ft | 435 kts | 71° |
| 2026-05-07 18:47 | 53.08169 | 6.91041 | 23125 ft | 435 kts | 72° |
| 2026-05-07 18:47 | 53.09122 | 6.95813 | 23124 ft | 434 kts | 72° |
| 2026-05-07 18:47 | 53.10070 | 7.00586 | 23127 ft | 434 kts | 72° |
| 2026-05-07 18:48 | 53.11016 | 7.05352 | 23126 ft | 434 kts | 72° |
| 2026-05-07 18:48 | 53.11959 | 7.10125 | 23124 ft | 434 kts | 72° |
| 2026-05-07 18:48 | 53.12897 | 7.14896 | 23122 ft | 434 kts | 72° |
| 2026-05-07 18:48 | 53.13836 | 7.19672 | 23118 ft | 434 kts | 72° |
| 2026-05-07 18:49 | 53.14777 | 7.24454 | 23111 ft | 434 kts | 72° |
| 2026-05-07 18:49 | 53.15718 | 7.29236 | 23113 ft | 434 kts | 72° |
| 2026-05-07 18:49 | 53.16656 | 7.34013 | 23110 ft | 434 kts | 72° |
| 2026-05-07 18:49 | 53.17597 | 7.38807 | 23113 ft | 435 kts | 72° |
| 2026-05-07 18:50 | 53.18535 | 7.43590 | 23110 ft | 435 kts | 72° |
| 2026-05-07 18:50 | 53.19472 | 7.48389 | 23112 ft | 435 kts | 72° |
| 2026-05-07 18:50 | 53.20401 | 7.53188 | 23118 ft | 435 kts | 72° |
| 2026-05-07 18:50 | 53.21324 | 7.57987 | 23119 ft | 435 kts | 72° |
| 2026-05-07 18:51 | 53.22247 | 7.62791 | 23120 ft | 435 kts | 72° |
| 2026-05-07 18:51 | 53.23169 | 7.67593 | 23120 ft | 435 kts | 72° |
| 2026-05-07 18:51 | 53.24109 | 7.72390 | 23120 ft | 435 kts | 69° |
| 2026-05-07 18:51 | 53.25476 | 7.76876 | 23117 ft | 434 kts | 58° |
| 2026-05-07 18:52 | 53.27043 | 7.81191 | 23063 ft | 433 kts | 58° |
| 2026-05-07 18:52 | 53.28602 | 7.85462 | 22751 ft | 428 kts | 58° |
| 2026-05-07 18:52 | 53.30146 | 7.89680 | 22373 ft | 424 kts | 58° |
| 2026-05-07 18:52 | 53.31680 | 7.93874 | 21993 ft | 421 kts | 58° |
| 2026-05-07 18:53 | 53.33201 | 7.98040 | 21629 ft | 419 kts | 58° |
| 2026-05-07 18:53 | 53.34714 | 8.02195 | 21264 ft | 417 kts | 58° |
| 2026-05-07 18:53 | 53.36194 | 8.06280 | 20891 ft | 414 kts | 58° |
| 2026-05-07 18:53 | 53.37682 | 8.10396 | 20538 ft | 413 kts | 58° |
| 2026-05-07 18:54 | 53.39164 | 8.14502 | 20182 ft | 410 kts | 59° |
| 2026-05-07 18:54 | 53.40634 | 8.18577 | 19833 ft | 408 kts | 58° |
| 2026-05-07 18:54 | 53.42096 | 8.22641 | 19488 ft | 405 kts | 59° |
| 2026-05-07 18:54 | 53.43547 | 8.26680 | 19149 ft | 404 kts | 59° |
| 2026-05-07 18:55 | 53.44991 | 8.30701 | 18808 ft | 402 kts | 58° |
| 2026-05-07 18:55 | 53.46429 | 8.34706 | 18481 ft | 399 kts | 58° |
| 2026-05-07 18:55 | 53.47856 | 8.38692 | 18112 ft | 398 kts | 59° |
| 2026-05-07 18:55 | 53.49272 | 8.42663 | 17728 ft | 395 kts | 59° |
| 2026-05-07 18:56 | 53.50681 | 8.46622 | 17352 ft | 394 kts | 59° |
| 2026-05-07 18:56 | 53.52077 | 8.50553 | 16977 ft | 391 kts | 59° |
| 2026-05-07 18:56 | 53.53461 | 8.54450 | 16609 ft | 384 kts | 59° |
| 2026-05-07 18:56 | 53.54819 | 8.58275 | 16250 ft | 377 kts | 59° |
| 2026-05-07 18:57 | 53.56149 | 8.62025 | 15893 ft | 370 kts | 59° |
| 2026-05-07 18:57 | 53.57457 | 8.65715 | 15539 ft | 364 kts | 59° |
| 2026-05-07 18:57 | 53.58739 | 8.69342 | 15188 ft | 358 kts | 59° |
| 2026-05-07 18:57 | 53.60001 | 8.72922 | 14843 ft | 353 kts | 59° |
| 2026-05-07 18:58 | 53.61244 | 8.76451 | 14502 ft | 348 kts | 59° |
| 2026-05-07 18:58 | 53.62470 | 8.79932 | 14164 ft | 344 kts | 59° |
| 2026-05-07 18:58 | 53.63683 | 8.83374 | 13820 ft | 339 kts | 59° |
| 2026-05-07 18:58 | 53.64880 | 8.86776 | 13438 ft | 335 kts | 59° |
| 2026-05-07 18:59 | 53.66056 | 8.90130 | 13069 ft | 331 kts | 59° |
| 2026-05-07 18:59 | 53.67212 | 8.93436 | 12806 ft | 323 kts | 59° |
| 2026-05-07 18:59 | 53.68341 | 8.96670 | 12541 ft | 317 kts | 59° |
| 2026-05-07 18:59 | 53.69448 | 8.99843 | 12224 ft | 312 kts | 59° |
| 2026-05-07 19:00 | 53.70545 | 9.02998 | 11811 ft | 311 kts | 59° |
| 2026-05-07 19:00 | 53.71637 | 9.06146 | 11406 ft | 310 kts | 59° |
| 2026-05-07 19:00 | 53.72720 | 9.09261 | 10999 ft | 302 kts | 59° |
| 2026-05-07 19:00 | 53.73765 | 9.12272 | 10594 ft | 293 kts | 59° |
| 2026-05-07 19:01 | 53.74772 | 9.15172 | 10262 ft | 289 kts | 60° |
| 2026-05-07 19:01 | 53.75793 | 9.18129 | 10043 ft | 288 kts | 60° |
| 2026-05-07 19:01 | 53.76783 | 9.21009 | 9914 ft | 287 kts | 60° |
| 2026-05-07 19:01 | 53.77785 | 9.23915 | 9781 ft | 285 kts | 60° |
| 2026-05-07 19:02 | 53.78787 | 9.26812 | 9498 ft | 285 kts | 60° |
| 2026-05-07 19:02 | 53.79570 | 9.29855 | 9141 ft | 281 kts | 74° |
| 2026-05-07 19:02 | 53.79873 | 9.33096 | 8804 ft | 278 kts | 89° |
| 2026-05-07 19:02 | 53.79694 | 9.36334 | 8463 ft | 276 kts | 102° |
| 2026-05-07 19:03 | 53.79061 | 9.39392 | 8134 ft | 275 kts | 116° |
| 2026-05-07 19:03 | 53.78051 | 9.42114 | 7920 ft | 273 kts | 123° |
| 2026-05-07 19:03 | 53.76882 | 9.44646 | 7783 ft | 274 kts | 137° |
| 2026-05-07 19:03 | 53.75238 | 9.46258 | 7658 ft | 276 kts | 162° |
| 2026-05-07 19:04 | 53.73332 | 9.46522 | 7530 ft | 276 kts | 187° |
| 2026-05-07 19:04 | 53.71578 | 9.45423 | 7402 ft | 265 kts | 212° |
| 2026-05-07 19:04 | 53.70040 | 9.43856 | 7268 ft | 252 kts | 198° |
| 2026-05-07 19:04 | 53.68350 | 9.43515 | 7151 ft | 244 kts | 174° |
| 2026-05-07 19:05 | 53.66678 | 9.43946 | 7022 ft | 243 kts | 166° |
| 2026-05-07 19:05 | 53.65045 | 9.44636 | 6898 ft | 242 kts | 163° |
| 2026-05-07 19:05 | 53.63424 | 9.45386 | 6774 ft | 241 kts | 163° |
| 2026-05-07 19:05 | 53.61808 | 9.46126 | 6651 ft | 241 kts | 163° |
| 2026-05-07 19:06 | 53.60180 | 9.46847 | 6531 ft | 242 kts | 164° |
| 2026-05-07 19:06 | 53.56956 | 9.48192 | 6261 ft | 231 kts | 165° |
| 2026-05-07 19:06 | 53.55432 | 9.48805 | 6123 ft | 221 kts | 165° |
| 2026-05-07 19:07 | 53.53948 | 9.49399 | 6010 ft | 218 kts | 165° |
| 2026-05-07 19:07 | 53.52475 | 9.49970 | 5867 ft | 217 kts | 169° |
| 2026-05-07 19:07 | 53.50985 | 9.49991 | 5740 ft | 219 kts | 188° |
| 2026-05-07 19:07 | 53.49537 | 9.49199 | 5609 ft | 220 kts | 201° |
| 2026-05-07 19:08 | 53.48067 | 9.48694 | 5444 ft | 216 kts | 171° |
| 2026-05-07 19:08 | 53.46682 | 9.49515 | 5139 ft | 211 kts | 148° |
| 2026-05-07 19:08 | 53.45562 | 9.51039 | 4826 ft | 207 kts | 121° |
| 2026-05-07 19:08 | 53.45174 | 9.53293 | 4546 ft | 202 kts | 85° |
| 2026-05-07 19:09 | 53.45592 | 9.55492 | 4290 ft | 199 kts | 66° |
| 2026-05-07 19:09 | 53.46197 | 9.57561 | 4055 ft | 196 kts | 65° |
| 2026-05-07 19:09 | 53.46678 | 9.59699 | 4021 ft | 196 kts | 73° |
| 2026-05-07 19:09 | 53.47078 | 9.61888 | 4023 ft | 196 kts | 74° |
| 2026-05-07 19:10 | 53.47468 | 9.64085 | 4029 ft | 196 kts | 74° |
| 2026-05-07 19:10 | 53.47853 | 9.66270 | 4035 ft | 195 kts | 74° |
| 2026-05-07 19:10 | 53.48233 | 9.68420 | 4028 ft | 185 kts | 73° |
| 2026-05-07 19:10 | 53.48836 | 9.70210 | 4015 ft | 174 kts | 52° |
| 2026-05-07 19:11 | 53.49596 | 9.71764 | 3864 ft | 171 kts | 52° |
| 2026-05-07 19:11 | 53.50354 | 9.73296 | 3664 ft | 170 kts | 52° |
| 2026-05-07 19:11 | 53.51111 | 9.74819 | 3444 ft | 169 kts | 52° |
| 2026-05-07 19:11 | 53.51865 | 9.76331 | 3215 ft | 169 kts | 52° |
| 2026-05-07 19:12 | 53.52620 | 9.77844 | 2983 ft | 169 kts | 52° |
| 2026-05-07 19:12 | 53.53369 | 9.79347 | 2764 ft | 167 kts | 52° |
| 2026-05-07 19:12 | 53.54113 | 9.80841 | 2530 ft | 167 kts | 52° |
| 2026-05-07 19:12 | 53.54857 | 9.82335 | 2297 ft | 166 kts | 52° |
| 2026-05-07 19:13 | 53.55598 | 9.83824 | 2069 ft | 166 kts | 52° |
| 2026-05-07 19:13 | 53.56334 | 9.85304 | 1843 ft | 165 kts | 52° |
| 2026-05-07 19:13 | 53.57070 | 9.86784 | 1614 ft | 165 kts | 52° |
| 2026-05-07 19:13 | 53.57804 | 9.88262 | 1389 ft | 165 kts | 52° |
| 2026-05-07 19:14 | 53.58550 | 9.89764 | 1150 ft | 168 kts | 52° |
| 2026-05-07 19:14 | 53.59250 | 9.91173 | 922 ft | 147 kts | 51° |
| 2026-05-07 19:14 | 53.59871 | 9.92426 | 736 ft | 137 kts | 51° |
| 2026-05-07 19:14 | 53.60466 | 9.93626 | 558 ft | 132 kts | 50° |
| 2026-05-07 19:15 | 53.61052 | 9.94809 | 376 ft | 132 kts | 50° |
| 2026-05-07 19:15 | 53.61641 | 9.95998 | 197 ft | 131 kts | 50° |
| 2026-05-07 19:15 | 53.62220 | 9.97159 | 53 ft | 127 kts | 50° |
| 2026-05-07 19:15 | 53.62714 | 9.98162 | 43 ft | 89 kts | 51° |
| 2026-05-07 19:16 | 53.63004 | 9.98753 | 45 ft | 48 kts | 50° |
| 2026-05-07 19:16 | 53.63211 | 9.99167 | 47 ft | 44 kts | 50° |
| 2026-05-07 19:16 | 53.63291 | 9.99527 | 47 ft | 26 kts | 101° |
| 2026-05-07 19:16 | 53.63278 | 9.99658 | 48 ft | 0 kts | 100° |
| 2026-05-07 19:17 | 53.63277 | 9.99681 | 48 ft | 10 kts | 92° |
| 2026-05-07 19:18 | 53.63322 | 9.99846 | 48 ft | 18 kts | 53° |
| 2026-05-07 19:18 | 53.63410 | 10.00023 | 48 ft | 20 kts | 49° |
| 2026-05-07 19:18 | 53.63461 | 10.00171 | 47 ft | 9 kts | 97° |
| 2026-05-07 19:18 | 53.63448 | 10.00210 | 46 ft | 5 kts | 89° |
| 2026-05-07 19:19 | 53.63447 | 10.00257 | 48 ft | 3 kts | 90° |
| 2026-05-07 19:19 | 53.63449 | 10.00287 | 48 ft | 2 kts | 85° |
| 2026-05-07 19:19 | 53.63449 | 10.00301 | 48 ft | 0 kts | 85° |